sensor_id;sensor_type;location;lat;lon;timestamp;P1;durP1;ratioP1;P2;durP2;ratioP2
2610;SDS011;5612;51.134;17.058;2022-07-05T00:01:16;16.30;;;15.20;;
2610;SDS011;5612;51.134;17.058;2022-07-05T00:03:45;17.00;;;15.90;;
2610;SDS011;5612;51.134;17.058;2022-07-05T00:06:17;15.33;;;14.33;;
2610;SDS011;5612;51.134;17.058;2022-07-05T00:08:46;15.73;;;14.73;;
2610;SDS011;5612;51.134;17.058;2022-07-05T00:11:16;16.40;;;15.30;;
2610;SDS011;5612;51.134;17.058;2022-07-05T00:13:45;17.20;;;15.87;;
2610;SDS011;5612;51.134;17.058;2022-07-05T00:16:14;14.20;;;13.40;;
2610;SDS011;5612;51.134;17.058;2022-07-05T00:18:43;16.50;;;15.13;;
2610;SDS011;5612;51.134;17.058;2022-07-05T00:21:13;15.37;;;14.17;;
2610;SDS011;5612;51.134;17.058;2022-07-05T00:23:43;14.37;;;13.47;;
2610;SDS011;5612;51.134;17.058;2022-07-05T00:26:13;13.63;;;12.73;;
2610;SDS011;5612;51.134;17.058;2022-07-05T00:28:42;14.47;;;13.50;;
2610;SDS011;5612;51.134;17.058;2022-07-05T00:31:11;14.77;;;13.77;;
2610;SDS011;5612;51.134;17.058;2022-07-05T00:33:41;12.60;;;11.90;;
2610;SDS011;5612;51.134;17.058;2022-07-05T00:36:10;14.27;;;13.37;;
2610;SDS011;5612;51.134;17.058;2022-07-05T00:38:40;14.90;;;13.80;;
2610;SDS011;5612;51.134;17.058;2022-07-05T00:41:11;13.40;;;12.60;;
2610;SDS011;5612;51.134;17.058;2022-07-05T00:43:51;13.27;;;12.27;;
2610;SDS011;5612;51.134;17.058;2022-07-05T00:46:22;13.37;;;12.47;;
2610;SDS011;5612;51.134;17.058;2022-07-05T00:48:52;13.30;;;12.50;;
2610;SDS011;5612;51.134;17.058;2022-07-05T00:51:22;13.50;;;12.60;;
2610;SDS011;5612;51.134;17.058;2022-07-05T00:53:52;12.67;;;11.97;;
2610;SDS011;5612;51.134;17.058;2022-07-05T00:56:23;12.23;;;11.43;;
2610;SDS011;5612;51.134;17.058;2022-07-05T00:58:53;13.80;;;13.00;;
2610;SDS011;5612;51.134;17.058;2022-07-05T01:01:23;14.67;;;13.57;;
2610;SDS011;5612;51.134;17.058;2022-07-05T01:03:54;12.33;;;11.53;;
2610;SDS011;5612;51.134;17.058;2022-07-05T01:06:24;13.77;;;12.90;;
2610;SDS011;5612;51.134;17.058;2022-07-05T01:08:54;13.63;;;12.83;;
2610;SDS011;5612;51.134;17.058;2022-07-05T01:11:25;12.80;;;12.00;;
2610;SDS011;5612;51.134;17.058;2022-07-05T01:13:55;13.20;;;12.40;;
2610;SDS011;5612;51.134;17.058;2022-07-05T01:16:27;14.17;;;13.37;;
2610;SDS011;5612;51.134;17.058;2022-07-05T01:18:57;13.43;;;12.53;;
2610;SDS011;5612;51.134;17.058;2022-07-05T01:21:26;14.53;;;13.60;;
2610;SDS011;5612;51.134;17.058;2022-07-05T01:23:59;14.20;;;13.20;;
2610;SDS011;5612;51.134;17.058;2022-07-05T01:26:29;14.30;;;13.50;;
2610;SDS011;5612;51.134;17.058;2022-07-05T01:28:59;14.40;;;13.30;;
2610;SDS011;5612;51.134;17.058;2022-07-05T01:31:28;13.00;;;12.23;;
2610;SDS011;5612;51.134;17.058;2022-07-05T01:33:58;13.83;;;13.03;;
2610;SDS011;5612;51.134;17.058;2022-07-05T01:36:27;14.30;;;13.40;;
2610;SDS011;5612;51.134;17.058;2022-07-05T01:38:56;14.13;;;13.13;;
2610;SDS011;5612;51.134;17.058;2022-07-05T01:41:27;12.60;;;11.77;;
2610;SDS011;5612;51.134;17.058;2022-07-05T01:43:58;12.83;;;11.93;;
2610;SDS011;5612;51.134;17.058;2022-07-05T01:46:29;13.73;;;12.83;;
2610;SDS011;5612;51.134;17.058;2022-07-05T01:49:04;12.97;;;12.17;;
2610;SDS011;5612;51.134;17.058;2022-07-05T01:51:39;13.17;;;12.37;;
2610;SDS011;5612;51.134;17.058;2022-07-05T01:54:15;12.90;;;12.03;;
2610;SDS011;5612;51.134;17.058;2022-07-05T01:56:44;13.77;;;12.97;;
2610;SDS011;5612;51.134;17.058;2022-07-05T01:59:14;12.83;;;12.03;;
2610;SDS011;5612;51.134;17.058;2022-07-05T02:01:43;14.87;;;13.97;;
2610;SDS011;5612;51.134;17.058;2022-07-05T02:04:13;13.50;;;12.60;;
2610;SDS011;5612;51.134;17.058;2022-07-05T02:06:42;13.50;;;12.70;;
2610;SDS011;5612;51.134;17.058;2022-07-05T02:09:12;14.13;;;13.23;;
2610;SDS011;5612;51.134;17.058;2022-07-05T02:11:43;14.20;;;13.30;;
2610;SDS011;5612;51.134;17.058;2022-07-05T02:14:12;14.20;;;13.30;;
2610;SDS011;5612;51.134;17.058;2022-07-05T02:16:41;13.63;;;12.73;;
2610;SDS011;5612;51.134;17.058;2022-07-05T02:19:11;14.73;;;13.83;;
2610;SDS011;5612;51.134;17.058;2022-07-05T02:21:41;15.00;;;14.00;;
2610;SDS011;5612;51.134;17.058;2022-07-05T02:24:10;14.23;;;13.33;;
2610;SDS011;5612;51.134;17.058;2022-07-05T02:26:39;14.37;;;13.47;;
2610;SDS011;5612;51.134;17.058;2022-07-05T02:29:10;14.90;;;13.90;;
2610;SDS011;5612;51.134;17.058;2022-07-05T02:31:40;14.03;;;13.03;;
2610;SDS011;5612;51.134;17.058;2022-07-05T02:34:09;15.07;;;13.97;;
2610;SDS011;5612;51.134;17.058;2022-07-05T02:36:38;14.17;;;13.27;;
2610;SDS011;5612;51.134;17.058;2022-07-05T02:39:07;16.20;;;14.90;;
2610;SDS011;5612;51.134;17.058;2022-07-05T02:41:36;15.00;;;14.07;;
2610;SDS011;5612;51.134;17.058;2022-07-05T02:44:05;14.80;;;13.60;;
2610;SDS011;5612;51.134;17.058;2022-07-05T02:46:36;16.30;;;15.07;;
2610;SDS011;5612;51.134;17.058;2022-07-05T02:49:06;15.90;;;14.70;;
2610;SDS011;5612;51.134;17.058;2022-07-05T02:51:35;14.17;;;13.03;;
2610;SDS011;5612;51.134;17.058;2022-07-05T02:54:04;15.30;;;14.13;;
2610;SDS011;5612;51.134;17.058;2022-07-05T02:56:34;15.20;;;14.20;;
2610;SDS011;5612;51.134;17.058;2022-07-05T02:59:03;16.47;;;15.43;;
2610;SDS011;5612;51.134;17.058;2022-07-05T03:01:32;15.20;;;14.10;;
2610;SDS011;5612;51.134;17.058;2022-07-05T03:04:04;14.80;;;13.90;;
2610;SDS011;5612;51.134;17.058;2022-07-05T03:06:33;13.70;;;12.80;;
2610;SDS011;5612;51.134;17.058;2022-07-05T03:09:02;16.37;;;15.23;;
2610;SDS011;5612;51.134;17.058;2022-07-05T03:11:31;14.40;;;13.50;;
2610;SDS011;5612;51.134;17.058;2022-07-05T03:14:01;14.27;;;13.23;;
2610;SDS011;5612;51.134;17.058;2022-07-05T03:16:30;13.83;;;12.83;;
2610;SDS011;5612;51.134;17.058;2022-07-05T03:19:01;12.60;;;11.77;;
2610;SDS011;5612;51.134;17.058;2022-07-05T03:21:31;13.20;;;12.07;;
2610;SDS011;5612;51.134;17.058;2022-07-05T03:24:01;14.20;;;13.30;;
2610;SDS011;5612;51.134;17.058;2022-07-05T03:26:30;12.20;;;11.43;;
2610;SDS011;5612;51.134;17.058;2022-07-05T03:28:59;14.97;;;13.73;;
2610;SDS011;5612;51.134;17.058;2022-07-05T03:31:28;13.33;;;12.53;;
2610;SDS011;5612;51.134;17.058;2022-07-05T03:33:58;14.07;;;13.03;;
2610;SDS011;5612;51.134;17.058;2022-07-05T03:36:27;13.93;;;13.00;;
2610;SDS011;5612;51.134;17.058;2022-07-05T03:38:58;13.33;;;12.50;;
2610;SDS011;5612;51.134;17.058;2022-07-05T03:41:27;13.47;;;12.50;;
2610;SDS011;5612;51.134;17.058;2022-07-05T03:43:56;13.13;;;12.33;;
2610;SDS011;5612;51.134;17.058;2022-07-05T03:46:26;13.50;;;12.60;;
2610;SDS011;5612;51.134;17.058;2022-07-05T03:48:55;13.00;;;12.20;;
2610;SDS011;5612;51.134;17.058;2022-07-05T03:51:24;11.87;;;10.87;;
2610;SDS011;5612;51.134;17.058;2022-07-05T03:53:53;11.80;;;10.73;;
2610;SDS011;5612;51.134;17.058;2022-07-05T03:56:24;11.93;;;11.23;;
2610;SDS011;5612;51.134;17.058;2022-07-05T03:58:53;12.03;;;11.03;;
2610;SDS011;5612;51.134;17.058;2022-07-05T04:01:23;13.13;;;12.10;;
2610;SDS011;5612;51.134;17.058;2022-07-05T04:03:52;11.80;;;11.10;;
2610;SDS011;5612;51.134;17.058;2022-07-05T04:06:22;12.43;;;11.63;;
2610;SDS011;5612;51.134;17.058;2022-07-05T04:08:51;12.50;;;11.50;;
2610;SDS011;5612;51.134;17.058;2022-07-05T04:11:21;12.37;;;11.40;;
2610;SDS011;5612;51.134;17.058;2022-07-05T04:13:52;12.43;;;11.33;;
2610;SDS011;5612;51.134;17.058;2022-07-05T04:16:21;13.40;;;12.40;;
2610;SDS011;5612;51.134;17.058;2022-07-05T04:18:50;13.60;;;12.43;;
2610;SDS011;5612;51.134;17.058;2022-07-05T04:21:20;12.83;;;12.03;;
2610;SDS011;5612;51.134;17.058;2022-07-05T04:23:49;12.47;;;11.53;;
2610;SDS011;5612;51.134;17.058;2022-07-05T04:26:18;12.80;;;11.90;;
2610;SDS011;5612;51.134;17.058;2022-07-05T04:28:48;13.40;;;12.60;;
2610;SDS011;5612;51.134;17.058;2022-07-05T04:31:24;14.30;;;13.20;;
2610;SDS011;5612;51.134;17.058;2022-07-05T04:33:53;13.83;;;12.80;;
2610;SDS011;5612;51.134;17.058;2022-07-05T04:36:23;12.87;;;12.07;;
2610;SDS011;5612;51.134;17.058;2022-07-05T04:38:52;12.73;;;11.83;;
2610;SDS011;5612;51.134;17.058;2022-07-05T04:41:21;12.90;;;12.10;;
2610;SDS011;5612;51.134;17.058;2022-07-05T04:43:50;13.13;;;12.27;;
2610;SDS011;5612;51.134;17.058;2022-07-05T04:46:19;13.13;;;12.33;;
2610;SDS011;5612;51.134;17.058;2022-07-05T04:48:51;13.80;;;12.90;;
2610;SDS011;5612;51.134;17.058;2022-07-05T04:51:20;13.87;;;12.77;;
2610;SDS011;5612;51.134;17.058;2022-07-05T04:53:50;13.67;;;12.77;;
2610;SDS011;5612;51.134;17.058;2022-07-05T04:56:19;13.60;;;12.40;;
2610;SDS011;5612;51.134;17.058;2022-07-05T04:58:48;14.20;;;13.07;;
2610;SDS011;5612;51.134;17.058;2022-07-05T05:01:17;14.03;;;12.67;;
2610;SDS011;5612;51.134;17.058;2022-07-05T05:03:47;13.17;;;12.37;;
2610;SDS011;5612;51.134;17.058;2022-07-05T05:06:18;14.57;;;13.53;;
2610;SDS011;5612;51.134;17.058;2022-07-05T05:08:47;12.73;;;11.60;;
2610;SDS011;5612;51.134;17.058;2022-07-05T05:11:16;12.97;;;12.07;;
2610;SDS011;5612;51.134;17.058;2022-07-05T05:13:45;14.43;;;13.00;;
2610;SDS011;5612;51.134;17.058;2022-07-05T05:16:15;13.80;;;13.00;;
2610;SDS011;5612;51.134;17.058;2022-07-05T05:18:44;13.23;;;12.30;;
2610;SDS011;5612;51.134;17.058;2022-07-05T05:21:13;13.03;;;12.07;;
2610;SDS011;5612;51.134;17.058;2022-07-05T05:23:44;13.20;;;12.30;;
2610;SDS011;5612;51.134;17.058;2022-07-05T05:26:13;13.77;;;12.67;;
2610;SDS011;5612;51.134;17.058;2022-07-05T05:28:43;12.93;;;12.03;;
2610;SDS011;5612;51.134;17.058;2022-07-05T05:31:12;13.67;;;12.60;;
2610;SDS011;5612;51.134;17.058;2022-07-05T05:33:42;12.87;;;11.97;;
2610;SDS011;5612;51.134;17.058;2022-07-05T05:36:11;12.20;;;11.20;;
2610;SDS011;5612;51.134;17.058;2022-07-05T05:38:41;13.33;;;12.53;;
2610;SDS011;5612;51.134;17.058;2022-07-05T05:41:18;13.30;;;12.40;;
2610;SDS011;5612;51.134;17.058;2022-07-05T05:43:47;12.97;;;12.03;;
2610;SDS011;5612;51.134;17.058;2022-07-05T05:46:16;14.53;;;13.40;;
2610;SDS011;5612;51.134;17.058;2022-07-05T05:48:46;12.50;;;11.60;;
2610;SDS011;5612;51.134;17.058;2022-07-05T05:51:15;12.47;;;11.67;;
2610;SDS011;5612;51.134;17.058;2022-07-05T05:53:44;13.17;;;12.27;;
2610;SDS011;5612;51.134;17.058;2022-07-05T05:56:13;12.50;;;11.60;;
2610;SDS011;5612;51.134;17.058;2022-07-05T05:58:44;13.87;;;12.97;;
2610;SDS011;5612;51.134;17.058;2022-07-05T06:01:13;12.83;;;12.03;;
2610;SDS011;5612;51.134;17.058;2022-07-05T06:03:43;12.13;;;11.23;;
2610;SDS011;5612;51.134;17.058;2022-07-05T06:06:12;12.40;;;11.60;;
2610;SDS011;5612;51.134;17.058;2022-07-05T06:08:41;12.00;;;11.00;;
2610;SDS011;5612;51.134;17.058;2022-07-05T06:11:11;11.50;;;10.67;;
2610;SDS011;5612;51.134;17.058;2022-07-05T06:13:40;12.10;;;11.20;;
2610;SDS011;5612;51.134;17.058;2022-07-05T06:16:12;11.47;;;10.67;;
2610;SDS011;5612;51.134;17.058;2022-07-05T06:18:41;11.67;;;10.73;;
2610;SDS011;5612;51.134;17.058;2022-07-05T06:21:11;11.80;;;10.90;;
2610;SDS011;5612;51.134;17.058;2022-07-05T06:23:40;10.40;;;9.50;;
2610;SDS011;5612;51.134;17.058;2022-07-05T06:26:09;10.50;;;9.60;;
2610;SDS011;5612;51.134;17.058;2022-07-05T06:28:39;11.37;;;10.50;;
2610;SDS011;5612;51.134;17.058;2022-07-05T06:31:08;10.47;;;9.87;;
2610;SDS011;5612;51.134;17.058;2022-07-05T06:33:39;8.77;;;8.17;;
2610;SDS011;5612;51.134;17.058;2022-07-05T06:36:09;8.93;;;8.43;;
2610;SDS011;5612;51.134;17.058;2022-07-05T06:38:39;8.87;;;8.27;;
2610;SDS011;5612;51.134;17.058;2022-07-05T06:41:08;9.83;;;9.03;;
2610;SDS011;5612;51.134;17.058;2022-07-05T06:43:37;9.53;;;8.80;;
2610;SDS011;5612;51.134;17.058;2022-07-05T06:46:07;9.77;;;9.17;;
2610;SDS011;5612;51.134;17.058;2022-07-05T06:48:36;9.27;;;8.77;;
2610;SDS011;5612;51.134;17.058;2022-07-05T06:51:07;8.90;;;8.20;;
2610;SDS011;5612;51.134;17.058;2022-07-05T06:53:37;9.17;;;8.47;;
2610;SDS011;5612;51.134;17.058;2022-07-05T06:56:07;9.87;;;9.07;;
2610;SDS011;5612;51.134;17.058;2022-07-05T06:58:36;9.93;;;9.23;;
2610;SDS011;5612;51.134;17.058;2022-07-05T07:01:06;10.20;;;9.50;;
2610;SDS011;5612;51.134;17.058;2022-07-05T07:03:46;9.80;;;9.10;;
2610;SDS011;5612;51.134;17.058;2022-07-05T07:06:36;10.73;;;10.07;;
2610;SDS011;5612;51.134;17.058;2022-07-05T07:09:06;10.23;;;9.50;;
2610;SDS011;5612;51.134;17.058;2022-07-05T07:11:49;10.10;;;9.40;;
2610;SDS011;5612;51.134;17.058;2022-07-05T07:14:18;9.50;;;8.80;;
2610;SDS011;5612;51.134;17.058;2022-07-05T07:16:47;9.03;;;8.53;;
2610;SDS011;5612;51.134;17.058;2022-07-05T07:19:20;9.37;;;8.63;;
2610;SDS011;5612;51.134;17.058;2022-07-05T07:21:52;9.60;;;9.00;;
2610;SDS011;5612;51.134;17.058;2022-07-05T07:24:22;10.57;;;9.87;;
2610;SDS011;5612;51.134;17.058;2022-07-05T07:26:51;10.93;;;9.97;;
2610;SDS011;5612;51.134;17.058;2022-07-05T07:29:34;9.93;;;9.33;;
2610;SDS011;5612;51.134;17.058;2022-07-05T07:32:05;11.53;;;10.33;;
2610;SDS011;5612;51.134;17.058;2022-07-05T07:34:38;11.20;;;10.20;;
2610;SDS011;5612;51.134;17.058;2022-07-05T07:37:08;11.00;;;10.20;;
2610;SDS011;5612;51.134;17.058;2022-07-05T07:39:40;9.57;;;8.97;;
2610;SDS011;5612;51.134;17.058;2022-07-05T07:42:10;11.17;;;10.07;;
2610;SDS011;5612;51.134;17.058;2022-07-05T07:44:39;10.87;;;10.17;;
2610;SDS011;5612;51.134;17.058;2022-07-05T07:47:09;11.03;;;10.07;;
2610;SDS011;5612;51.134;17.058;2022-07-05T07:49:40;10.07;;;9.27;;
2610;SDS011;5612;51.134;17.058;2022-07-05T07:52:12;10.17;;;9.30;;
2610;SDS011;5612;51.134;17.058;2022-07-05T07:54:42;9.40;;;8.70;;
2610;SDS011;5612;51.134;17.058;2022-07-05T07:57:13;10.60;;;9.60;;
2610;SDS011;5612;51.134;17.058;2022-07-05T07:59:42;13.23;;;11.90;;
2610;SDS011;5612;51.134;17.058;2022-07-05T08:02:12;11.93;;;10.93;;
2610;SDS011;5612;51.134;17.058;2022-07-05T08:04:46;11.53;;;10.63;;
2610;SDS011;5612;51.134;17.058;2022-07-05T08:07:15;10.57;;;9.77;;
2610;SDS011;5612;51.134;17.058;2022-07-05T08:09:45;11.23;;;10.23;;
2610;SDS011;5612;51.134;17.058;2022-07-05T08:12:15;13.10;;;11.83;;
2610;SDS011;5612;51.134;17.058;2022-07-05T08:14:44;13.20;;;12.07;;
2610;SDS011;5612;51.134;17.058;2022-07-05T08:17:14;13.20;;;12.23;;
2610;SDS011;5612;51.134;17.058;2022-07-05T08:19:43;12.13;;;11.00;;
2610;SDS011;5612;51.134;17.058;2022-07-05T08:22:32;11.67;;;10.87;;
2610;SDS011;5612;51.134;17.058;2022-07-05T08:25:02;13.33;;;12.20;;
2610;SDS011;5612;51.134;17.058;2022-07-05T08:27:32;13.23;;;12.23;;
2610;SDS011;5612;51.134;17.058;2022-07-05T08:30:01;13.43;;;12.40;;
2610;SDS011;5612;51.134;17.058;2022-07-05T08:32:31;11.77;;;10.90;;
2610;SDS011;5612;51.134;17.058;2022-07-05T08:35:00;12.47;;;11.63;;
2610;SDS011;5612;51.134;17.058;2022-07-05T08:37:29;10.80;;;10.03;;
2610;SDS011;5612;51.134;17.058;2022-07-05T08:40:00;11.60;;;10.80;;
2610;SDS011;5612;51.134;17.058;2022-07-05T08:42:29;10.97;;;10.17;;
2610;SDS011;5612;51.134;17.058;2022-07-05T08:44:57;11.57;;;10.60;;
2610;SDS011;5612;51.134;17.058;2022-07-05T08:47:28;11.60;;;10.67;;
2610;SDS011;5612;51.134;17.058;2022-07-05T08:49:57;12.43;;;11.53;;
2610;SDS011;5612;51.134;17.058;2022-07-05T08:52:27;11.80;;;10.70;;
2610;SDS011;5612;51.134;17.058;2022-07-05T08:55:00;11.47;;;10.30;;
2610;SDS011;5612;51.134;17.058;2022-07-05T08:57:29;9.50;;;8.80;;
2610;SDS011;5612;51.134;17.058;2022-07-05T08:59:59;9.77;;;9.07;;
2610;SDS011;5612;51.134;17.058;2022-07-05T09:02:28;9.70;;;8.80;;
2610;SDS011;5612;51.134;17.058;2022-07-05T09:04:59;8.80;;;8.10;;
2610;SDS011;5612;51.134;17.058;2022-07-05T09:07:30;10.10;;;9.10;;
2610;SDS011;5612;51.134;17.058;2022-07-05T09:10:07;8.63;;;7.77;;
2610;SDS011;5612;51.134;17.058;2022-07-05T09:12:40;7.83;;;7.33;;
2610;SDS011;5612;51.134;17.058;2022-07-05T09:15:09;8.30;;;7.70;;
2610;SDS011;5612;51.134;17.058;2022-07-05T09:17:43;8.80;;;8.10;;
2610;SDS011;5612;51.134;17.058;2022-07-05T09:20:13;9.60;;;8.90;;
2610;SDS011;5612;51.134;17.058;2022-07-05T09:22:44;9.30;;;8.70;;
2610;SDS011;5612;51.134;17.058;2022-07-05T09:25:21;8.33;;;7.73;;
2610;SDS011;5612;51.134;17.058;2022-07-05T09:27:55;7.47;;;6.77;;
2610;SDS011;5612;51.134;17.058;2022-07-05T09:30:26;6.43;;;5.97;;
2610;SDS011;5612;51.134;17.058;2022-07-05T09:33:00;6.30;;;5.70;;
2610;SDS011;5612;51.134;17.058;2022-07-05T09:35:33;6.60;;;6.10;;
2610;SDS011;5612;51.134;17.058;2022-07-05T09:38:04;8.03;;;7.23;;
2610;SDS011;5612;51.134;17.058;2022-07-05T09:40:44;6.13;;;5.77;;
2610;SDS011;5612;51.134;17.058;2022-07-05T09:43:17;6.23;;;5.73;;
2610;SDS011;5612;51.134;17.058;2022-07-05T09:45:52;8.77;;;6.23;;
2610;SDS011;5612;51.134;17.058;2022-07-05T09:48:24;6.53;;;6.03;;
2610;SDS011;5612;51.134;17.058;2022-07-05T09:51:04;5.50;;;5.20;;
2610;SDS011;5612;51.134;17.058;2022-07-05T09:53:57;6.63;;;5.53;;
2610;SDS011;5612;51.134;17.058;2022-07-05T09:56:45;5.50;;;5.10;;
2610;SDS011;5612;51.134;17.058;2022-07-05T09:59:16;5.57;;;5.10;;
2610;SDS011;5612;51.134;17.058;2022-07-05T10:01:49;5.40;;;5.00;;
2610;SDS011;5612;51.134;17.058;2022-07-05T10:04:21;5.60;;;5.27;;
2610;SDS011;5612;51.134;17.058;2022-07-05T10:06:53;5.57;;;5.20;;
2610;SDS011;5612;51.134;17.058;2022-07-05T10:09:23;5.20;;;4.90;;
2610;SDS011;5612;51.134;17.058;2022-07-05T10:11:56;5.27;;;4.80;;
2610;SDS011;5612;51.134;17.058;2022-07-05T10:14:25;5.20;;;4.90;;
2610;SDS011;5612;51.134;17.058;2022-07-05T10:16:57;6.50;;;5.00;;
2610;SDS011;5612;51.134;17.058;2022-07-05T10:19:32;6.07;;;4.60;;
2610;SDS011;5612;51.134;17.058;2022-07-05T10:22:08;5.57;;;5.07;;
2610;SDS011;5612;51.134;17.058;2022-07-05T10:24:45;5.70;;;5.20;;
2610;SDS011;5612;51.134;17.058;2022-07-05T10:27:19;4.93;;;4.60;;
2610;SDS011;5612;51.134;17.058;2022-07-05T10:29:49;7.03;;;6.13;;
2610;SDS011;5612;51.134;17.058;2022-07-05T10:32:19;5.07;;;4.20;;
2610;SDS011;5612;51.134;17.058;2022-07-05T10:34:52;4.73;;;4.40;;
2610;SDS011;5612;51.134;17.058;2022-07-05T10:37:24;5.10;;;4.70;;
2610;SDS011;5612;51.134;17.058;2022-07-05T10:39:57;5.13;;;4.83;;
2610;SDS011;5612;51.134;17.058;2022-07-05T10:42:30;4.90;;;4.60;;
2610;SDS011;5612;51.134;17.058;2022-07-05T10:50:45;3.90;;;3.70;;
2610;SDS011;5612;51.134;17.058;2022-07-05T10:53:19;4.57;;;4.17;;
2610;SDS011;5612;51.134;17.058;2022-07-05T10:55:50;4.27;;;3.97;;
2610;SDS011;5612;51.134;17.058;2022-07-05T10:58:29;4.03;;;3.60;;
2610;SDS011;5612;51.134;17.058;2022-07-05T11:07:01;3.90;;;3.70;;
2610;SDS011;5612;51.134;17.058;2022-07-05T11:09:32;3.80;;;3.47;;
2610;SDS011;5612;51.134;17.058;2022-07-05T11:12:09;3.33;;;3.23;;
2610;SDS011;5612;51.134;17.058;2022-07-05T11:15:06;3.77;;;3.57;;
2610;SDS011;5612;51.134;17.058;2022-07-05T11:17:39;3.97;;;3.77;;
2610;SDS011;5612;51.134;17.058;2022-07-05T11:20:29;3.73;;;3.47;;
2610;SDS011;5612;51.134;17.058;2022-07-05T11:23:09;6.13;;;4.00;;
2610;SDS011;5612;51.134;17.058;2022-07-05T11:25:40;3.90;;;3.60;;
2610;SDS011;5612;51.134;17.058;2022-07-05T11:28:16;3.33;;;3.13;;
2610;SDS011;5612;51.134;17.058;2022-07-05T11:30:55;3.20;;;3.00;;
2610;SDS011;5612;51.134;17.058;2022-07-05T11:33:30;3.30;;;3.00;;
2610;SDS011;5612;51.134;17.058;2022-07-05T11:36:02;3.90;;;3.67;;
2610;SDS011;5612;51.134;17.058;2022-07-05T11:38:34;3.30;;;3.10;;
2610;SDS011;5612;51.134;17.058;2022-07-05T11:41:39;3.30;;;3.07;;
2610;SDS011;5612;51.134;17.058;2022-07-05T11:44:10;3.03;;;2.83;;
2610;SDS011;5612;51.134;17.058;2022-07-05T11:46:42;4.03;;;2.70;;
2610;SDS011;5612;51.134;17.058;2022-07-05T11:49:22;4.00;;;3.70;;
2610;SDS011;5612;51.134;17.058;2022-07-05T11:51:56;3.60;;;3.30;;
2610;SDS011;5612;51.134;17.058;2022-07-05T11:54:26;3.33;;;3.13;;
2610;SDS011;5612;51.134;17.058;2022-07-05T11:56:58;4.43;;;4.13;;
2610;SDS011;5612;51.134;17.058;2022-07-05T11:59:28;3.53;;;3.23;;
2610;SDS011;5612;51.134;17.058;2022-07-05T12:01:59;3.63;;;3.43;;
2610;SDS011;5612;51.134;17.058;2022-07-05T12:04:33;3.50;;;2.67;;
2610;SDS011;5612;51.134;17.058;2022-07-05T12:07:03;3.47;;;3.10;;
2610;SDS011;5612;51.134;17.058;2022-07-05T12:09:33;2.97;;;2.77;;
2610;SDS011;5612;51.134;17.058;2022-07-05T12:12:17;2.60;;;2.50;;
2610;SDS011;5612;51.134;17.058;2022-07-05T12:15:04;3.50;;;3.30;;
2610;SDS011;5612;51.134;17.058;2022-07-05T12:17:36;2.58;;;2.47;;
2610;SDS011;5612;51.134;17.058;2022-07-05T12:20:08;2.42;;;2.33;;
2610;SDS011;5612;51.134;17.058;2022-07-05T12:22:41;2.30;;;2.20;;
2610;SDS011;5612;51.134;17.058;2022-07-05T12:25:12;1.90;;;1.80;;
2610;SDS011;5612;51.134;17.058;2022-07-05T12:27:44;2.30;;;2.20;;
2610;SDS011;5612;51.134;17.058;2022-07-05T12:30:16;2.17;;;1.90;;
2610;SDS011;5612;51.134;17.058;2022-07-05T12:32:54;2.50;;;2.30;;
2610;SDS011;5612;51.134;17.058;2022-07-05T12:35:26;2.55;;;2.35;;
2610;SDS011;5612;51.134;17.058;2022-07-05T12:38:01;2.35;;;2.15;;
2610;SDS011;5612;51.134;17.058;2022-07-05T12:40:35;2.47;;;2.38;;
2610;SDS011;5612;51.134;17.058;2022-07-05T12:43:07;1.77;;;1.67;;
2610;SDS011;5612;51.134;17.058;2022-07-05T12:45:38;2.22;;;2.13;;
2610;SDS011;5612;51.134;17.058;2022-07-05T12:48:10;1.50;;;1.50;;
2610;SDS011;5612;51.134;17.058;2022-07-05T12:50:44;1.83;;;1.73;;
2610;SDS011;5612;51.134;17.058;2022-07-05T12:53:44;2.20;;;2.00;;
2610;SDS011;5612;51.134;17.058;2022-07-05T12:56:32;2.38;;;2.17;;
2610;SDS011;5612;51.134;17.058;2022-07-05T12:59:38;1.50;;;1.50;;
2610;SDS011;5612;51.134;17.058;2022-07-05T13:02:09;2.00;;;1.90;;
2610;SDS011;5612;51.134;17.058;2022-07-05T13:04:53;2.03;;;1.92;;
2610;SDS011;5612;51.134;17.058;2022-07-05T13:07:25;2.00;;;1.90;;
2610;SDS011;5612;51.134;17.058;2022-07-05T13:10:18;1.88;;;1.70;;
2610;SDS011;5612;51.134;17.058;2022-07-05T13:12:50;2.55;;;1.80;;
2610;SDS011;5612;51.134;17.058;2022-07-05T13:15:19;1.80;;;1.70;;
2610;SDS011;5612;51.134;17.058;2022-07-05T13:17:48;1.95;;;1.85;;
2610;SDS011;5612;51.134;17.058;2022-07-05T13:20:21;1.80;;;1.70;;
2610;SDS011;5612;51.134;17.058;2022-07-05T13:22:50;1.80;;;1.67;;
2610;SDS011;5612;51.134;17.058;2022-07-05T13:25:19;1.30;;;1.30;;
2610;SDS011;5612;51.134;17.058;2022-07-05T13:27:48;5.95;;;1.65;;
2610;SDS011;5612;51.134;17.058;2022-07-05T13:30:20;1.58;;;1.48;;
2610;SDS011;5612;51.134;17.058;2022-07-05T13:32:50;1.40;;;1.40;;
2610;SDS011;5612;51.134;17.058;2022-07-05T13:35:21;1.50;;;1.25;;
2610;SDS011;5612;51.134;17.058;2022-07-05T13:37:50;1.90;;;1.80;;
2610;SDS011;5612;51.134;17.058;2022-07-05T13:40:19;1.50;;;1.42;;
2610;SDS011;5612;51.134;17.058;2022-07-05T13:42:49;1.55;;;1.55;;
2610;SDS011;5612;51.134;17.058;2022-07-05T13:45:18;2.03;;;1.92;;
2610;SDS011;5612;51.134;17.058;2022-07-05T13:47:55;1.88;;;1.83;;
2610;SDS011;5612;51.134;17.058;2022-07-05T13:50:27;1.58;;;1.48;;
2610;SDS011;5612;51.134;17.058;2022-07-05T13:53:00;1.50;;;1.40;;
2610;SDS011;5612;51.134;17.058;2022-07-05T13:55:31;1.67;;;1.58;;
2610;SDS011;5612;51.134;17.058;2022-07-05T13:58:00;1.40;;;1.30;;
2610;SDS011;5612;51.134;17.058;2022-07-05T14:00:29;3.78;;;2.25;;
2610;SDS011;5612;51.134;17.058;2022-07-05T14:02:59;1.90;;;1.80;;
2610;SDS011;5612;51.134;17.058;2022-07-05T14:05:33;1.40;;;1.27;;
2610;SDS011;5612;51.134;17.058;2022-07-05T14:08:03;2.28;;;2.17;;
2610;SDS011;5612;51.134;17.058;2022-07-05T14:10:33;1.80;;;1.70;;
2610;SDS011;5612;51.134;17.058;2022-07-05T14:13:02;1.90;;;1.80;;
2610;SDS011;5612;51.134;17.058;2022-07-05T14:15:32;6.75;;;2.53;;
2610;SDS011;5612;51.134;17.058;2022-07-05T14:18:02;1.33;;;1.23;;
2610;SDS011;5612;51.134;17.058;2022-07-05T14:20:32;2.20;;;2.03;;
2610;SDS011;5612;51.134;17.058;2022-07-05T14:23:03;2.20;;;1.90;;
2610;SDS011;5612;51.134;17.058;2022-07-05T14:25:32;2.00;;;1.90;;
2610;SDS011;5612;51.134;17.058;2022-07-05T14:28:01;3.67;;;1.90;;
2610;SDS011;5612;51.134;17.058;2022-07-05T14:30:34;1.65;;;1.60;;
2610;SDS011;5612;51.134;17.058;2022-07-05T14:33:04;1.65;;;1.60;;
2610;SDS011;5612;51.134;17.058;2022-07-05T14:35:35;2.28;;;1.70;;
2610;SDS011;5612;51.134;17.058;2022-07-05T14:38:05;2.33;;;1.85;;
2610;SDS011;5612;51.134;17.058;2022-07-05T14:40:34;2.35;;;2.25;;
2610;SDS011;5612;51.134;17.058;2022-07-05T14:43:04;2.10;;;2.00;;
2610;SDS011;5612;51.134;17.058;2022-07-05T14:45:33;1.92;;;1.83;;
2610;SDS011;5612;51.134;17.058;2022-07-05T14:48:02;1.80;;;1.70;;
2610;SDS011;5612;51.134;17.058;2022-07-05T14:50:32;2.47;;;2.03;;
2610;SDS011;5612;51.134;17.058;2022-07-05T14:53:03;2.05;;;1.95;;
2610;SDS011;5612;51.134;17.058;2022-07-05T14:55:35;1.80;;;1.70;;
2610;SDS011;5612;51.134;17.058;2022-07-05T14:58:04;1.80;;;1.70;;
2610;SDS011;5612;51.134;17.058;2022-07-05T15:00:33;2.60;;;2.40;;
2610;SDS011;5612;51.134;17.058;2022-07-05T15:03:02;1.60;;;1.60;;
2610;SDS011;5612;51.134;17.058;2022-07-05T15:05:33;2.05;;;1.95;;
2610;SDS011;5612;51.134;17.058;2022-07-05T15:08:06;7.47;;;2.20;;
2610;SDS011;5612;51.134;17.058;2022-07-05T15:10:35;1.80;;;1.70;;
2610;SDS011;5612;51.134;17.058;2022-07-05T15:13:05;2.03;;;1.93;;
2610;SDS011;5612;51.134;17.058;2022-07-05T15:15:36;2.40;;;2.20;;
2610;SDS011;5612;51.134;17.058;2022-07-05T15:18:05;1.90;;;1.47;;
2610;SDS011;5612;51.134;17.058;2022-07-05T15:20:34;1.77;;;1.77;;
2610;SDS011;5612;51.134;17.058;2022-07-05T15:23:05;2.03;;;1.93;;
2610;SDS011;5612;51.134;17.058;2022-07-05T15:25:35;2.60;;;2.30;;